sensor_id;sensor_type;location;lat;lon;timestamp;P1;durP1;ratioP1;P2;durP2;ratioP2
8640;SDS011;4358;42.100;25.222;2022-09-12T00:00:48;2.97;;;2.50;;
8640;SDS011;4358;42.100;25.222;2022-09-12T00:03:15;2.27;;;2.00;;
8640;SDS011;4358;42.100;25.222;2022-09-12T00:05:42;2.73;;;2.47;;
8640;SDS011;4358;42.100;25.222;2022-09-12T00:08:10;3.20;;;2.87;;
8640;SDS011;4358;42.100;25.222;2022-09-12T00:10:37;3.60;;;2.57;;
8640;SDS011;4358;42.100;25.222;2022-09-12T00:13:05;2.87;;;2.40;;
8640;SDS011;4358;42.100;25.222;2022-09-12T00:15:36;3.63;;;2.53;;
8640;SDS011;4358;42.100;25.222;2022-09-12T00:18:04;2.77;;;2.53;;
8640;SDS011;4358;42.100;25.222;2022-09-12T00:20:31;3.20;;;2.90;;
8640;SDS011;4358;42.100;25.222;2022-09-12T00:22:59;3.33;;;2.60;;
8640;SDS011;4358;42.100;25.222;2022-09-12T00:25:26;3.70;;;2.23;;
8640;SDS011;4358;42.100;25.222;2022-09-12T00:27:54;3.03;;;2.70;;
8640;SDS011;4358;42.100;25.222;2022-09-12T00:30:23;3.00;;;2.70;;
8640;SDS011;4358;42.100;25.222;2022-09-12T00:32:50;3.27;;;2.60;;
8640;SDS011;4358;42.100;25.222;2022-09-12T00:35:18;3.40;;;2.80;;
8640;SDS011;4358;42.100;25.222;2022-09-12T00:37:45;3.17;;;2.50;;
8640;SDS011;4358;42.100;25.222;2022-09-12T00:40:12;3.33;;;2.40;;
8640;SDS011;4358;42.100;25.222;2022-09-12T00:42:39;2.60;;;2.30;;
8640;SDS011;4358;42.100;25.222;2022-09-12T00:45:07;2.47;;;2.27;;
8640;SDS011;4358;42.100;25.222;2022-09-12T00:47:45;2.93;;;2.40;;
8640;SDS011;4358;42.100;25.222;2022-09-12T00:50:13;3.10;;;2.80;;
8640;SDS011;4358;42.100;25.222;2022-09-12T00:52:42;4.30;;;2.87;;
8640;SDS011;4358;42.100;25.222;2022-09-12T00:55:13;3.33;;;2.80;;
8640;SDS011;4358;42.100;25.222;2022-09-12T00:57:44;3.40;;;2.40;;
8640;SDS011;4358;42.100;25.222;2022-09-12T01:00:18;4.20;;;2.50;;
8640;SDS011;4358;42.100;25.222;2022-09-12T01:02:49;2.97;;;2.50;;
8640;SDS011;4358;42.100;25.222;2022-09-12T01:05:18;4.47;;;2.60;;
8640;SDS011;4358;42.100;25.222;2022-09-12T01:07:46;3.77;;;3.00;;
8640;SDS011;4358;42.100;25.222;2022-09-12T01:10:14;3.00;;;2.47;;
8640;SDS011;4358;42.100;25.222;2022-09-12T01:12:42;3.43;;;2.50;;
8640;SDS011;4358;42.100;25.222;2022-09-12T01:15:10;2.97;;;2.67;;
8640;SDS011;4358;42.100;25.222;2022-09-12T01:17:39;2.93;;;2.30;;
8640;SDS011;4358;42.100;25.222;2022-09-12T01:20:27;2.53;;;2.33;;
8640;SDS011;4358;42.100;25.222;2022-09-12T01:23:38;4.23;;;2.27;;
8640;SDS011;4358;42.100;25.222;2022-09-12T01:26:25;2.40;;;2.20;;
8640;SDS011;4358;42.100;25.222;2022-09-12T01:29:20;2.50;;;2.10;;
8640;SDS011;4358;42.100;25.222;2022-09-12T01:32:02;3.90;;;2.17;;
8640;SDS011;4358;42.100;25.222;2022-09-12T01:34:37;2.63;;;2.33;;
8640;SDS011;4358;42.100;25.222;2022-09-12T01:37:13;2.90;;;2.60;;
8640;SDS011;4358;42.100;25.222;2022-09-12T01:39:48;3.40;;;2.37;;
8640;SDS011;4358;42.100;25.222;2022-09-12T01:42:21;5.57;;;2.03;;
8640;SDS011;4358;42.100;25.222;2022-09-12T01:44:58;2.47;;;2.20;;
8640;SDS011;4358;42.100;25.222;2022-09-12T01:47:37;2.63;;;2.43;;
8640;SDS011;4358;42.100;25.222;2022-09-12T01:50:07;2.97;;;2.20;;
8640;SDS011;4358;42.100;25.222;2022-09-12T01:52:41;3.03;;;1.73;;
8640;SDS011;4358;42.100;25.222;2022-09-12T01:55:12;2.80;;;2.40;;
8640;SDS011;4358;42.100;25.222;2022-09-12T01:57:45;2.50;;;2.27;;
8640;SDS011;4358;42.100;25.222;2022-09-12T02:00:17;2.87;;;2.57;;
8640;SDS011;4358;42.100;25.222;2022-09-12T02:02:47;3.67;;;2.83;;
8640;SDS011;4358;42.100;25.222;2022-09-12T02:05:18;2.77;;;2.13;;
8640;SDS011;4358;42.100;25.222;2022-09-12T02:07:51;2.13;;;1.93;;
8640;SDS011;4358;42.100;25.222;2022-09-12T02:10:22;2.27;;;2.07;;
8640;SDS011;4358;42.100;25.222;2022-09-12T02:12:51;2.57;;;2.07;;
8640;SDS011;4358;42.100;25.222;2022-09-12T02:15:25;2.40;;;2.17;;
8640;SDS011;4358;42.100;25.222;2022-09-12T02:17:56;2.07;;;1.90;;
8640;SDS011;4358;42.100;25.222;2022-09-12T02:20:27;2.20;;;2.10;;
8640;SDS011;4358;42.100;25.222;2022-09-12T02:22:56;2.47;;;2.27;;
8640;SDS011;4358;42.100;25.222;2022-09-12T02:25:25;2.63;;;2.40;;
8640;SDS011;4358;42.100;25.222;2022-09-12T02:27:56;2.23;;;2.03;;
8640;SDS011;4358;42.100;25.222;2022-09-12T02:30:26;1.90;;;1.70;;
8640;SDS011;4358;42.100;25.222;2022-09-12T02:33:03;3.33;;;2.30;;
8640;SDS011;4358;42.100;25.222;2022-09-12T02:35:33;2.00;;;1.80;;
8640;SDS011;4358;42.100;25.222;2022-09-12T02:38:04;2.10;;;1.90;;
8640;SDS011;4358;42.100;25.222;2022-09-12T02:40:34;2.00;;;1.83;;
8640;SDS011;4358;42.100;25.222;2022-09-12T02:43:02;2.87;;;2.43;;
8640;SDS011;4358;42.100;25.222;2022-09-12T02:45:31;1.77;;;1.67;;
8640;SDS011;4358;42.100;25.222;2022-09-12T02:47:59;1.93;;;1.73;;
8640;SDS011;4358;42.100;25.222;2022-09-12T02:50:32;2.23;;;1.80;;
8640;SDS011;4358;42.100;25.222;2022-09-12T02:53:00;2.90;;;1.97;;
8640;SDS011;4358;42.100;25.222;2022-09-12T02:55:29;2.30;;;2.10;;
8640;SDS011;4358;42.100;25.222;2022-09-12T02:57:58;2.00;;;1.80;;
8640;SDS011;4358;42.100;25.222;2022-09-12T03:00:27;1.83;;;1.73;;
8640;SDS011;4358;42.100;25.222;2022-09-12T03:03:08;2.27;;;2.07;;
8640;SDS011;4358;42.100;25.222;2022-09-12T03:05:51;2.30;;;1.90;;
8640;SDS011;4358;42.100;25.222;2022-09-12T03:08:36;2.13;;;1.93;;
8640;SDS011;4358;42.100;25.222;2022-09-12T03:11:21;2.07;;;1.87;;
8640;SDS011;4358;42.100;25.222;2022-09-12T03:13:57;2.30;;;1.90;;
8640;SDS011;4358;42.100;25.222;2022-09-12T03:16:34;1.83;;;1.73;;
8640;SDS011;4358;42.100;25.222;2022-09-12T03:19:12;1.53;;;1.43;;
8640;SDS011;4358;42.100;25.222;2022-09-12T03:21:48;1.83;;;1.67;;
8640;SDS011;4358;42.100;25.222;2022-09-12T03:24:24;2.60;;;1.90;;
8640;SDS011;4358;42.100;25.222;2022-09-12T03:26:59;2.27;;;2.03;;
8640;SDS011;4358;42.100;25.222;2022-09-12T03:29:34;2.00;;;1.80;;
8640;SDS011;4358;42.100;25.222;2022-09-12T03:32:02;1.90;;;1.80;;
8640;SDS011;4358;42.100;25.222;2022-09-12T03:34:30;1.67;;;1.57;;
8640;SDS011;4358;42.100;25.222;2022-09-12T03:36:57;1.50;;;1.40;;
8640;SDS011;4358;42.100;25.222;2022-09-12T03:39:24;2.07;;;1.87;;
8640;SDS011;4358;42.100;25.222;2022-09-12T03:41:52;1.90;;;1.60;;
8640;SDS011;4358;42.100;25.222;2022-09-12T03:44:19;2.17;;;1.80;;
8640;SDS011;4358;42.100;25.222;2022-09-12T03:46:46;2.23;;;2.03;;
8640;SDS011;4358;42.100;25.222;2022-09-12T03:49:13;2.53;;;2.10;;
8640;SDS011;4358;42.100;25.222;2022-09-12T03:51:41;1.80;;;1.60;;
8640;SDS011;4358;42.100;25.222;2022-09-12T03:54:08;1.97;;;1.73;;
8640;SDS011;4358;42.100;25.222;2022-09-12T03:56:35;2.67;;;2.03;;
8640;SDS011;4358;42.100;25.222;2022-09-12T03:59:04;2.30;;;2.10;;
8640;SDS011;4358;42.100;25.222;2022-09-12T04:01:32;1.80;;;1.70;;
8640;SDS011;4358;42.100;25.222;2022-09-12T04:03:59;2.77;;;2.57;;
8640;SDS011;4358;42.100;25.222;2022-09-12T04:06:26;1.80;;;1.70;;
8640;SDS011;4358;42.100;25.222;2022-09-12T04:08:55;1.83;;;1.73;;
8640;SDS011;4358;42.100;25.222;2022-09-12T04:11:22;2.50;;;2.07;;
8640;SDS011;4358;42.100;25.222;2022-09-12T04:13:49;2.23;;;2.03;;
8640;SDS011;4358;42.100;25.222;2022-09-12T04:16:16;1.93;;;1.60;;
8640;SDS011;4358;42.100;25.222;2022-09-12T04:18:43;1.73;;;1.60;;
8640;SDS011;4358;42.100;25.222;2022-09-12T04:21:11;2.03;;;1.90;;
8640;SDS011;4358;42.100;25.222;2022-09-12T04:23:40;2.13;;;1.93;;
8640;SDS011;4358;42.100;25.222;2022-09-12T04:26:09;2.03;;;1.87;;
8640;SDS011;4358;42.100;25.222;2022-09-12T04:28:37;2.17;;;1.97;;
8640;SDS011;4358;42.100;25.222;2022-09-12T04:31:05;1.50;;;1.40;;
8640;SDS011;4358;42.100;25.222;2022-09-12T04:33:34;2.10;;;1.50;;
8640;SDS011;4358;42.100;25.222;2022-09-12T04:36:02;2.00;;;1.60;;
8640;SDS011;4358;42.100;25.222;2022-09-12T04:38:30;1.87;;;1.57;;
8640;SDS011;4358;42.100;25.222;2022-09-12T04:40:57;1.70;;;1.47;;
8640;SDS011;4358;42.100;25.222;2022-09-12T04:43:26;1.80;;;1.70;;
8640;SDS011;4358;42.100;25.222;2022-09-12T04:45:54;1.53;;;1.43;;
8640;SDS011;4358;42.100;25.222;2022-09-12T04:48:20;1.63;;;1.53;;
8640;SDS011;4358;42.100;25.222;2022-09-12T04:50:47;1.73;;;1.60;;
8640;SDS011;4358;42.100;25.222;2022-09-12T04:53:14;1.60;;;1.50;;
8640;SDS011;4358;42.100;25.222;2022-09-12T04:55:41;1.70;;;1.60;;
8640;SDS011;4358;42.100;25.222;2022-09-12T04:58:08;1.43;;;1.30;;
8640;SDS011;4358;42.100;25.222;2022-09-12T05:00:36;1.63;;;1.53;;
8640;SDS011;4358;42.100;25.222;2022-09-12T05:03:03;1.70;;;1.60;;
8640;SDS011;4358;42.100;25.222;2022-09-12T05:05:30;1.83;;;1.73;;
8640;SDS011;4358;42.100;25.222;2022-09-12T05:07:57;1.40;;;1.30;;
8640;SDS011;4358;42.100;25.222;2022-09-12T05:10:23;1.47;;;1.37;;
8640;SDS011;4358;42.100;25.222;2022-09-12T05:12:51;1.30;;;1.20;;
8640;SDS011;4358;42.100;25.222;2022-09-12T05:15:18;1.30;;;1.20;;
8640;SDS011;4358;42.100;25.222;2022-09-12T05:17:46;1.53;;;1.43;;
8640;SDS011;4358;42.100;25.222;2022-09-12T05:20:13;1.50;;;1.40;;
8640;SDS011;4358;42.100;25.222;2022-09-12T05:22:41;1.50;;;1.30;;
8640;SDS011;4358;42.100;25.222;2022-09-12T05:25:08;1.00;;;1.00;;
8640;SDS011;4358;42.100;25.222;2022-09-12T05:27:35;1.43;;;1.33;;
8640;SDS011;4358;42.100;25.222;2022-09-12T05:30:02;1.70;;;1.60;;
8640;SDS011;4358;42.100;25.222;2022-09-12T05:32:30;1.40;;;1.30;;
8640;SDS011;4358;42.100;25.222;2022-09-12T05:34:59;1.33;;;1.23;;
8640;SDS011;4358;42.100;25.222;2022-09-12T05:37:25;1.30;;;1.20;;
8640;SDS011;4358;42.100;25.222;2022-09-12T05:39:53;1.47;;;1.37;;
8640;SDS011;4358;42.100;25.222;2022-09-12T05:42:20;1.13;;;1.03;;
8640;SDS011;4358;42.100;25.222;2022-09-12T05:44:47;1.73;;;1.17;;
8640;SDS011;4358;42.100;25.222;2022-09-12T05:47:14;1.10;;;1.00;;
8640;SDS011;4358;42.100;25.222;2022-09-12T05:49:43;1.00;;;1.00;;
8640;SDS011;4358;42.100;25.222;2022-09-12T05:52:13;1.17;;;1.07;;
8640;SDS011;4358;42.100;25.222;2022-09-12T05:54:40;1.00;;;1.00;;
8640;SDS011;4358;42.100;25.222;2022-09-12T05:57:07;2.03;;;1.43;;
8640;SDS011;4358;42.100;25.222;2022-09-12T05:59:34;1.20;;;1.10;;
8640;SDS011;4358;42.100;25.222;2022-09-12T06:02:01;1.20;;;1.10;;
8640;SDS011;4358;42.100;25.222;2022-09-12T06:04:27;1.13;;;1.03;;
8640;SDS011;4358;42.100;25.222;2022-09-12T06:06:54;1.20;;;1.10;;
8640;SDS011;4358;42.100;25.222;2022-09-12T06:09:22;1.23;;;1.13;;
8640;SDS011;4358;42.100;25.222;2022-09-12T06:11:50;0.93;;;0.90;;
8640;SDS011;4358;42.100;25.222;2022-09-12T06:14:17;1.30;;;1.20;;
8640;SDS011;4358;42.100;25.222;2022-09-12T06:16:45;0.93;;;0.87;;
8640;SDS011;4358;42.100;25.222;2022-09-12T06:19:13;0.93;;;0.93;;
8640;SDS011;4358;42.100;25.222;2022-09-12T06:21:42;3.83;;;1.27;;
8640;SDS011;4358;42.100;25.222;2022-09-12T06:24:09;3.90;;;0.97;;
8640;SDS011;4358;42.100;25.222;2022-09-12T06:26:38;1.33;;;1.23;;
8640;SDS011;4358;42.100;25.222;2022-09-12T06:29:05;2.33;;;1.20;;
8640;SDS011;4358;42.100;25.222;2022-09-12T06:31:33;1.77;;;1.27;;
8640;SDS011;4358;42.100;25.222;2022-09-12T06:34:02;1.10;;;1.00;;
8640;SDS011;4358;42.100;25.222;2022-09-12T06:36:30;1.03;;;1.00;;
8640;SDS011;4358;42.100;25.222;2022-09-12T06:38:59;1.10;;;1.00;;
8640;SDS011;4358;42.100;25.222;2022-09-12T06:41:28;1.00;;;1.00;;
8640;SDS011;4358;42.100;25.222;2022-09-12T06:43:58;0.90;;;0.90;;
8640;SDS011;4358;42.100;25.222;2022-09-12T06:46:26;1.20;;;1.10;;
8640;SDS011;4358;42.100;25.222;2022-09-12T06:48:54;1.10;;;1.00;;
8640;SDS011;4358;42.100;25.222;2022-09-12T06:51:21;1.60;;;1.00;;
8640;SDS011;4358;42.100;25.222;2022-09-12T06:53:49;0.90;;;0.90;;
8640;SDS011;4358;42.100;25.222;2022-09-12T06:56:17;1.20;;;1.10;;
8640;SDS011;4358;42.100;25.222;2022-09-12T06:58:45;0.90;;;0.90;;
8640;SDS011;4358;42.100;25.222;2022-09-12T07:01:15;0.90;;;0.90;;
8640;SDS011;4358;42.100;25.222;2022-09-12T07:03:46;1.20;;;1.10;;
8640;SDS011;4358;42.100;25.222;2022-09-12T07:06:14;0.80;;;0.80;;
8640;SDS011;4358;42.100;25.222;2022-09-12T07:08:42;0.80;;;0.80;;
8640;SDS011;4358;42.100;25.222;2022-09-12T07:11:10;1.10;;;1.00;;
8640;SDS011;4358;42.100;25.222;2022-09-12T07:13:39;0.97;;;0.90;;
8640;SDS011;4358;42.100;25.222;2022-09-12T07:16:07;1.00;;;0.90;;
8640;SDS011;4358;42.100;25.222;2022-09-12T07:18:36;0.80;;;0.80;;
8640;SDS011;4358;42.100;25.222;2022-09-12T07:21:05;0.70;;;0.70;;
8640;SDS011;4358;42.100;25.222;2022-09-12T07:23:33;1.20;;;0.90;;
8640;SDS011;4358;42.100;25.222;2022-09-12T07:26:00;1.03;;;0.90;;
8640;SDS011;4358;42.100;25.222;2022-09-12T07:28:28;2.33;;;0.80;;
8640;SDS011;4358;42.100;25.222;2022-09-12T07:30:57;1.03;;;0.90;;
8640;SDS011;4358;42.100;25.222;2022-09-12T07:33:30;1.07;;;1.03;;
8640;SDS011;4358;42.100;25.222;2022-09-12T07:36:01;3.13;;;1.00;;
8640;SDS011;4358;42.100;25.222;2022-09-12T07:38:28;1.10;;;1.00;;
8640;SDS011;4358;42.100;25.222;2022-09-12T07:40:56;0.80;;;0.80;;
8640;SDS011;4358;42.100;25.222;2022-09-12T07:43:23;0.73;;;0.73;;
8640;SDS011;4358;42.100;25.222;2022-09-12T07:45:53;1.00;;;0.90;;
8640;SDS011;4358;42.100;25.222;2022-09-12T07:48:20;0.80;;;0.80;;
8640;SDS011;4358;42.100;25.222;2022-09-12T07:50:48;1.60;;;0.93;;
8640;SDS011;4358;42.100;25.222;2022-09-12T07:53:24;1.20;;;0.93;;
8640;SDS011;4358;42.100;25.222;2022-09-12T07:55:54;0.80;;;0.80;;
8640;SDS011;4358;42.100;25.222;2022-09-12T07:58:21;1.00;;;0.90;;
8640;SDS011;4358;42.100;25.222;2022-09-12T08:00:48;1.00;;;0.90;;
8640;SDS011;4358;42.100;25.222;2022-09-12T08:03:15;1.53;;;1.00;;
8640;SDS011;4358;42.100;25.222;2022-09-12T08:05:42;0.70;;;0.70;;
8640;SDS011;4358;42.100;25.222;2022-09-12T08:08:09;1.20;;;1.10;;
8640;SDS011;4358;42.100;25.222;2022-09-12T08:10:38;1.10;;;0.80;;
8640;SDS011;4358;42.100;25.222;2022-09-12T08:13:04;1.20;;;1.00;;
8640;SDS011;4358;42.100;25.222;2022-09-12T08:15:33;1.20;;;0.80;;
8640;SDS011;4358;42.100;25.222;2022-09-12T08:18:00;0.97;;;0.90;;
8640;SDS011;4358;42.100;25.222;2022-09-12T08:20:27;0.80;;;0.80;;
8640;SDS011;4358;42.100;25.222;2022-09-12T08:22:54;0.70;;;0.70;;
8640;SDS011;4358;42.100;25.222;2022-09-12T08:25:21;0.90;;;0.90;;
8640;SDS011;4358;42.100;25.222;2022-09-12T08:27:49;0.77;;;0.70;;
8640;SDS011;4358;42.100;25.222;2022-09-12T08:30:16;0.77;;;0.77;;
8640;SDS011;4358;42.100;25.222;2022-09-12T08:32:43;0.97;;;0.90;;
8640;SDS011;4358;42.100;25.222;2022-09-12T08:35:10;1.20;;;1.10;;
8640;SDS011;4358;42.100;25.222;2022-09-12T08:37:36;0.80;;;0.80;;
8640;SDS011;4358;42.100;25.222;2022-09-12T08:40:03;1.03;;;0.90;;
8640;SDS011;4358;42.100;25.222;2022-09-12T08:42:41;0.80;;;0.80;;
8640;SDS011;4358;42.100;25.222;2022-09-12T08:45:18;0.80;;;0.80;;
8640;SDS011;4358;42.100;25.222;2022-09-12T08:47:49;1.00;;;0.90;;
8640;SDS011;4358;42.100;25.222;2022-09-12T08:50:17;0.80;;;0.80;;
8640;SDS011;4358;42.100;25.222;2022-09-12T08:52:50;0.77;;;0.70;;
8640;SDS011;4358;42.100;25.222;2022-09-12T08:55:29;0.90;;;0.90;;
8640;SDS011;4358;42.100;25.222;2022-09-12T08:57:58;0.80;;;0.80;;
8640;SDS011;4358;42.100;25.222;2022-09-12T09:00:30;0.70;;;0.70;;
8640;SDS011;4358;42.100;25.222;2022-09-12T09:03:23;0.80;;;0.80;;
8640;SDS011;4358;42.100;25.222;2022-09-12T09:06:16;0.67;;;0.67;;
8640;SDS011;4358;42.100;25.222;2022-09-12T09:08:54;0.87;;;0.87;;
8640;SDS011;4358;42.100;25.222;2022-09-12T09:11:30;1.20;;;0.80;;
8640;SDS011;4358;42.100;25.222;2022-09-12T09:14:13;0.80;;;0.80;;
8640;SDS011;4358;42.100;25.222;2022-09-12T09:17:17;0.93;;;0.83;;
8640;SDS011;4358;42.100;25.222;2022-09-12T09:19:50;0.97;;;0.80;;
8640;SDS011;4358;42.100;25.222;2022-09-12T09:22:25;0.90;;;0.80;;
8640;SDS011;4358;42.100;25.222;2022-09-12T09:24:58;0.50;;;0.50;;
8640;SDS011;4358;42.100;25.222;2022-09-12T09:27:32;0.80;;;0.80;;
8640;SDS011;4358;42.100;25.222;2022-09-12T09:30:04;0.70;;;0.70;;
8640;SDS011;4358;42.100;25.222;2022-09-12T09:32:39;0.80;;;0.80;;
8640;SDS011;4358;42.100;25.222;2022-09-12T09:35:11;0.60;;;0.60;;
8640;SDS011;4358;42.100;25.222;2022-09-12T09:37:43;0.70;;;0.70;;
8640;SDS011;4358;42.100;25.222;2022-09-12T09:40:22;0.70;;;0.70;;
8640;SDS011;4358;42.100;25.222;2022-09-12T09:42:55;0.77;;;0.70;;
8640;SDS011;4358;42.100;25.222;2022-09-12T09:45:26;0.67;;;0.67;;
8640;SDS011;4358;42.100;25.222;2022-09-12T09:47:56;0.60;;;0.60;;
8640;SDS011;4358;42.100;25.222;2022-09-12T09:50:26;0.60;;;0.60;;
8640;SDS011;4358;42.100;25.222;2022-09-12T09:52:54;1.83;;;0.90;;
8640;SDS011;4358;42.100;25.222;2022-09-12T09:55:27;0.80;;;0.80;;
8640;SDS011;4358;42.100;25.222;2022-09-12T09:57:57;0.80;;;0.80;;
8640;SDS011;4358;42.100;25.222;2022-09-12T10:00:25;0.70;;;0.70;;
8640;SDS011;4358;42.100;25.222;2022-09-12T10:03:03;0.77;;;0.73;;
8640;SDS011;4358;42.100;25.222;2022-09-12T10:05:33;0.70;;;0.70;;
8640;SDS011;4358;42.100;25.222;2022-09-12T10:08:02;0.63;;;0.63;;
8640;SDS011;4358;42.100;25.222;2022-09-12T10:10:32;0.70;;;0.70;;
8640;SDS011;4358;42.100;25.222;2022-09-12T10:13:05;0.70;;;0.70;;
8640;SDS011;4358;42.100;25.222;2022-09-12T10:15:34;0.80;;;0.80;;
8640;SDS011;4358;42.100;25.222;2022-09-12T10:18:03;0.77;;;0.70;;
8640;SDS011;4358;42.100;25.222;2022-09-12T10:20:32;0.70;;;0.70;;
8640;SDS011;4358;42.100;25.222;2022-09-12T10:23:01;1.10;;;0.70;;
8640;SDS011;4358;42.100;25.222;2022-09-12T10:25:40;1.17;;;1.07;;
8640;SDS011;4358;42.100;25.222;2022-09-12T10:28:15;0.80;;;0.80;;
8640;SDS011;4358;42.100;25.222;2022-09-12T10:30:51;2.53;;;0.83;;
8640;SDS011;4358;42.100;25.222;2022-09-12T10:33:21;0.77;;;0.70;;
8640;SDS011;4358;42.100;25.222;2022-09-12T10:35:50;0.70;;;0.70;;
8640;SDS011;4358;42.100;25.222;2022-09-12T10:38:20;0.80;;;0.80;;
8640;SDS011;4358;42.100;25.222;2022-09-12T10:40:56;0.70;;;0.70;;
8640;SDS011;4358;42.100;25.222;2022-09-12T10:43:25;0.97;;;0.97;;
8640;SDS011;4358;42.100;25.222;2022-09-12T10:45:58;0.73;;;0.70;;
8640;SDS011;4358;42.100;25.222;2022-09-12T10:48:47;0.73;;;0.70;;
8640;SDS011;4358;42.100;25.222;2022-09-12T10:51:24;0.70;;;0.70;;
8640;SDS011;4358;42.100;25.222;2022-09-12T10:53:52;1.00;;;0.80;;
8640;SDS011;4358;42.100;25.222;2022-09-12T10:56:21;0.70;;;0.70;;
8640;SDS011;4358;42.100;25.222;2022-09-12T10:59:00;0.70;;;0.70;;
8640;SDS011;4358;42.100;25.222;2022-09-12T11:01:41;0.70;;;0.70;;
8640;SDS011;4358;42.100;25.222;2022-09-12T11:04:21;0.87;;;0.87;;
8640;SDS011;4358;42.100;25.222;2022-09-12T11:07:00;0.80;;;0.80;;
8640;SDS011;4358;42.100;25.222;2022-09-12T11:09:41;0.93;;;0.70;;
8640;SDS011;4358;42.100;25.222;2022-09-12T11:12:18;0.80;;;0.80;;
8640;SDS011;4358;42.100;25.222;2022-09-12T11:14:54;0.90;;;0.80;;
8640;SDS011;4358;42.100;25.222;2022-09-12T11:17:32;0.70;;;0.70;;
8640;SDS011;4358;42.100;25.222;2022-09-12T11:20:20;0.77;;;0.77;;
8640;SDS011;4358;42.100;25.222;2022-09-12T11:23:02;0.90;;;0.80;;
8640;SDS011;4358;42.100;25.222;2022-09-12T11:25:51;0.80;;;0.80;;
8640;SDS011;4358;42.100;25.222;2022-09-12T11:28:28;0.80;;;0.80;;
8640;SDS011;4358;42.100;25.222;2022-09-12T11:31:12;0.70;;;0.70;;
8640;SDS011;4358;42.100;25.222;2022-09-12T11:33:51;2.50;;;0.80;;
8640;SDS011;4358;42.100;25.222;2022-09-12T11:36:25;2.10;;;0.80;;
8640;SDS011;4358;42.100;25.222;2022-09-12T11:39:01;0.80;;;0.80;;
8640;SDS011;4358;42.100;25.222;2022-09-12T11:41:38;0.70;;;0.70;;
8640;SDS011;4358;42.100;25.222;2022-09-12T11:44:10;0.77;;;0.77;;
8640;SDS011;4358;42.100;25.222;2022-09-12T11:46:41;0.67;;;0.67;;
8640;SDS011;4358;42.100;25.222;2022-09-12T11:49:16;0.70;;;0.70;;
8640;SDS011;4358;42.100;25.222;2022-09-12T11:51:54;0.77;;;0.77;;
8640;SDS011;4358;42.100;25.222;2022-09-12T11:54:24;0.60;;;0.60;;
8640;SDS011;4358;42.100;25.222;2022-09-12T11:56:57;0.80;;;0.80;;
8640;SDS011;4358;42.100;25.222;2022-09-12T11:59:34;0.60;;;0.60;;
8640;SDS011;4358;42.100;25.222;2022-09-12T12:02:10;0.67;;;0.60;;
8640;SDS011;4358;42.100;25.222;2022-09-12T12:04:40;0.60;;;0.60;;
8640;SDS011;4358;42.100;25.222;2022-09-12T12:07:22;0.97;;;0.80;;
8640;SDS011;4358;42.100;25.222;2022-09-12T12:09:49;0.60;;;0.60;;
8640;SDS011;4358;42.100;25.222;2022-09-12T12:12:18;0.60;;;0.60;;
8640;SDS011;4358;42.100;25.222;2022-09-12T12:14:48;0.63;;;0.63;;
8640;SDS011;4358;42.100;25.222;2022-09-12T12:17:18;0.60;;;0.60;;
8640;SDS011;4358;42.100;25.222;2022-09-12T12:19:47;0.60;;;0.60;;
8640;SDS011;4358;42.100;25.222;2022-09-12T12:22:25;0.60;;;0.60;;
8640;SDS011;4358;42.100;25.222;2022-09-12T12:24:53;0.70;;;0.60;;
8640;SDS011;4358;42.100;25.222;2022-09-12T12:27:24;0.50;;;0.50;;
8640;SDS011;4358;42.100;25.222;2022-09-12T12:36:27;0.70;;;0.70;;
8640;SDS011;4358;42.100;25.222;2022-09-12T12:42:04;0.60;;;0.60;;
8640;SDS011;4358;42.100;25.222;2022-09-12T12:44:46;1.13;;;1.07;;
8640;SDS011;4358;42.100;25.222;2022-09-12T12:47:15;0.90;;;0.90;;
8640;SDS011;4358;42.100;25.222;2022-09-12T12:49:48;4.50;;;0.90;;
8640;SDS011;4358;42.100;25.222;2022-09-12T12:52:17;0.80;;;0.80;;
8640;SDS011;4358;42.100;25.222;2022-09-12T12:54:48;1.00;;;0.80;;
8640;SDS011;4358;42.100;25.222;2022-09-12T12:57:28;0.70;;;0.70;;
8640;SDS011;4358;42.100;25.222;2022-09-12T13:00:00;0.80;;;0.80;;
8640;SDS011;4358;42.100;25.222;2022-09-12T13:02:30;1.00;;;0.90;;
8640;SDS011;4358;42.100;25.222;2022-09-12T13:05:00;0.80;;;0.80;;
8640;SDS011;4358;42.100;25.222;2022-09-12T13:07:31;0.80;;;0.80;;
8640;SDS011;4358;42.100;25.222;2022-09-12T13:10:00;0.60;;;0.60;;
8640;SDS011;4358;42.100;25.222;2022-09-12T13:12:29;0.60;;;0.60;;
8640;SDS011;4358;42.100;25.222;2022-09-12T13:14:59;0.70;;;0.63;;
8640;SDS011;4358;42.100;25.222;2022-09-12T13:17:29;1.17;;;0.80;;
8640;SDS011;4358;42.100;25.222;2022-09-12T13:20:04;1.30;;;0.73;;
8640;SDS011;4358;42.100;25.222;2022-09-12T13:22:47;0.63;;;0.63;;
8640;SDS011;4358;42.100;25.222;2022-09-12T13:25:21;0.70;;;0.70;;
8640;SDS011;4358;42.100;25.222;2022-09-12T13:27:57;0.60;;;0.60;;
8640;SDS011;4358;42.100;25.222;2022-09-12T13:30:26;0.80;;;0.60;;
8640;SDS011;4358;42.100;25.222;2022-09-12T13:32:55;0.80;;;0.80;;
8640;SDS011;4358;42.100;25.222;2022-09-12T13:35:27;2.30;;;0.70;;
8640;SDS011;4358;42.100;25.222;2022-09-12T13:38:06;0.77;;;0.70;;
8640;SDS011;4358;42.100;25.222;2022-09-12T13:40:44;0.67;;;0.67;;
8640;SDS011;4358;42.100;25.222;2022-09-12T13:43:26;0.60;;;0.60;;
8640;SDS011;4358;42.100;25.222;2022-09-12T13:46:03;0.50;;;0.50;;
8640;SDS011;4358;42.100;25.222;2022-09-12T13:48:32;0.60;;;0.60;;
8640;SDS011;4358;42.100;25.222;2022-09-12T13:50:59;0.70;;;0.70;;
8640;SDS011;4358;42.100;25.222;2022-09-12T13:53:28;0.70;;;0.70;;
8640;SDS011;4358;42.100;25.222;2022-09-12T13:56:02;1.03;;;0.70;;
8640;SDS011;4358;42.100;25.222;2022-09-12T13:58:31;0.97;;;0.70;;
8640;SDS011;4358;42.100;25.222;2022-09-12T14:01:00;0.70;;;0.70;;
8640;SDS011;4358;42.100;25.222;2022-09-12T14:03:30;0.93;;;0.93;;
8640;SDS011;4358;42.100;25.222;2022-09-12T14:06:15;1.60;;;0.90;;
8640;SDS011;4358;42.100;25.222;2022-09-12T14:08:43;0.80;;;0.80;;
8640;SDS011;4358;42.100;25.222;2022-09-12T14:11:16;0.80;;;0.80;;
8640;SDS011;4358;42.100;25.222;2022-09-12T14:13:50;0.70;;;0.70;;
8640;SDS011;4358;42.100;25.222;2022-09-12T14:16:18;1.00;;;0.80;;
8640;SDS011;4358;42.100;25.222;2022-09-12T14:18:47;0.70;;;0.70;;
8640;SDS011;4358;42.100;25.222;2022-09-12T14:21:19;0.77;;;0.77;;
8640;SDS011;4358;42.100;25.222;2022-09-12T14:23:58;0.83;;;0.83;;
8640;SDS011;4358;42.100;25.222;2022-09-12T14:26:26;0.80;;;0.80;;
8640;SDS011;4358;42.100;25.222;2022-09-12T14:28:56;0.80;;;0.80;;
8640;SDS011;4358;42.100;25.222;2022-09-12T14:31:27;1.10;;;1.00;;
8640;SDS011;4358;42.100;25.222;2022-09-12T14:33:56;1.20;;;1.10;;
8640;SDS011;4358;42.100;25.222;2022-09-12T14:36:35;0.83;;;0.83;;
8640;SDS011;4358;42.100;25.222;2022-09-12T14:39:06;1.10;;;1.00;;
8640;SDS011;4358;42.100;25.222;2022-09-12T14:41:43;0.80;;;0.80;;
8640;SDS011;4358;42.100;25.222;2022-09-12T14:44:15;0.73;;;0.73;;
8640;SDS011;4358;42.100;25.222;2022-09-12T14:46:44;0.90;;;0.90;;
8640;SDS011;4358;42.100;25.222;2022-09-12T14:49:14;0.80;;;0.80;;
8640;SDS011;4358;42.100;25.222;2022-09-12T14:51:47;2.80;;;0.90;;
8640;SDS011;4358;42.100;25.222;2022-09-12T14:54:36;1.07;;;1.00;;
8640;SDS011;4358;42.100;25.222;2022-09-12T14:57:05;2.60;;;1.00;;
8640;SDS011;4358;42.100;25.222;2022-09-12T14:59:44;0.80;;;0.80;;
8640;SDS011;4358;42.100;25.222;2022-09-12T15:02:20;0.90;;;0.90;;
8640;SDS011;4358;42.100;25.222;2022-09-12T15:04:50;0.70;;;0.70;;
8640;SDS011;4358;42.100;25.222;2022-09-12T15:07:20;1.00;;;0.97;;
8640;SDS011;4358;42.100;25.222;2022-09-12T15:09:56;1.60;;;1.50;;
8640;SDS011;4358;42.100;25.222;2022-09-12T15:12:24;1.90;;;1.53;;
8640;SDS011;4358;42.100;25.222;2022-09-12T15:14:53;1.50;;;1.40;;
8640;SDS011;4358;42.100;25.222;2022-09-12T15:17:25;1.70;;;1.60;;
8640;SDS011;4358;42.100;25.222;2022-09-12T15:19:52;1.80;;;1.30;;
8640;SDS011;4358;42.100;25.222;2022-09-12T15:22:18;1.83;;;1.60;;
8640;SDS011;4358;42.100;25.222;2022-09-12T15:24:48;1.43;;;1.33;;
8640;SDS011;4358;42.100;25.222;2022-09-12T15:27:15;1.93;;;1.60;;
8640;SDS011;4358;42.100;25.222;2022-09-12T15:29:42;1.97;;;1.77;;
8640;SDS011;4358;42.100;25.222;2022-09-12T15:32:13;1.77;;;1.60;;
8640;SDS011;4358;42.100;25.222;2022-09-12T15:34:48;2.20;;;1.60;;